Time;durP1;ratioP1;P1;durP2;ratioP2;P2;SDS_P1;SDS_P2;PMS_P1;PMS_P2;Temp;Humidity;BMP_temperature;BMP_pressure;BME280_temperature;BME280_humidity;BME280_pressure;Samples;Min_cycle;Max_cycle;Signal;HPM_P1;HPM_P2
2023/11/10 00:02:26;;;;;;;0.77;0.77;;;8.70;99.90;;;;;;4991238;28;20199;-89
2023/11/10 00:04:53;;;;;;;0.60;0.60;;;8.60;99.90;;;;;;5118625;23;20239;-89
2023/11/10 00:07:21;;;;;;;0.90;0.90;;;8.60;99.90;;;;;;5013957;28;20178;-87
2023/11/10 00:09:49;;;;;;;1.40;1.40;;;8.60;99.90;;;;;;5007031;28;20212;-87
2023/11/10 00:12:17;;;;;;;0.75;0.75;;;8.50;99.90;;;;;;4984544;28;20250;-87
2023/11/10 00:14:48;;;;;;;0.52;0.52;;;8.50;99.90;;;;;;4975041;28;20201;-86
2023/11/10 00:17:16;;;;;;;0.57;0.57;;;8.60;99.90;;;;;;4990237;28;20195;-85
2023/11/10 00:19:44;;;;;;;1.15;1.15;;;8.60;99.90;;;;;;5002110;28;20206;-87
2023/11/10 00:22:11;;;;;;;0.40;0.40;;;8.50;99.90;;;;;;4979529;28;20361;-87
2023/11/10 00:24:45;;;;;;;1.75;1.65;;;8.60;99.90;;;;;;4992247;28;20203;-83
2023/11/10 00:27:14;;;;;;;0.70;0.70;;;8.70;99.90;;;;;;5001332;28;20198;-85
2023/11/10 00:29:43;;;;;;;1.10;1.10;;;8.80;99.90;;;;;;5002280;28;20254;-87
2023/11/10 00:32:12;;;;;;;0.90;0.90;;;9.00;99.90;;;;;;4994573;28;20258;-85
2023/11/10 00:34:40;;;;;;;2.78;2.60;;;9.20;99.90;;;;;;4980517;28;20206;-85
2023/11/10 00:37:08;;;;;;;1.70;1.60;;;9.20;99.90;;;;;;5004533;28;20530;-87
2023/11/10 00:39:36;;;;;;;2.67;2.55;;;9.10;99.90;;;;;;4995896;28;20226;-84
2023/11/10 00:42:04;;;;;;;2.65;2.55;;;9.30;99.90;;;;;;5001742;28;20198;-83
2023/11/10 00:44:30;;;;;;;1.45;1.45;;;9.10;99.90;;;;;;4993442;28;20245;-82
2023/11/10 00:46:59;;;;;;;0.98;0.98;;;9.20;99.90;;;;;;4997530;28;20210;-88
2023/11/10 00:49:27;;;;;;;0.70;0.70;;;9.10;99.90;;;;;;4988612;28;20274;-88
2023/11/10 00:51:54;;;;;;;0.90;0.90;;;9.10;99.90;;;;;;4982221;28;20246;-87
2023/11/10 00:54:21;;;;;;;0.68;0.68;;;8.90;99.90;;;;;;5001530;28;20444;-85
2023/11/10 00:56:49;;;;;;;2.17;1.98;;;8.70;99.90;;;;;;4989088;28;20488;-87
2023/11/10 00:59:16;;;;;;;0.70;0.70;;;8.80;99.90;;;;;;5003368;28;20218;-88
2023/11/10 01:01:43;;;;;;;0.65;0.65;;;8.60;99.90;;;;;;4989609;28;20395;-85
2023/11/10 01:04:10;;;;;;;1.55;1.55;;;8.60;99.90;;;;;;4987201;28;20211;-87
2023/11/10 01:06:38;;;;;;;1.23;1.23;;;8.60;99.90;;;;;;4970547;28;20228;-86
2023/11/10 01:09:06;;;;;;;1.08;1.08;;;8.70;99.90;;;;;;4987550;28;20203;-86
2023/11/10 01:11:33;;;;;;;1.40;1.40;;;8.80;99.90;;;;;;4988780;28;20225;-86
2023/11/10 01:14:00;;;;;;;0.63;0.63;;;8.70;99.90;;;;;;4985278;28;20404;-88
2023/11/10 01:16:29;;;;;;;0.60;0.60;;;8.80;99.90;;;;;;4984667;28;20278;-85
2023/11/10 01:18:56;;;;;;;1.13;1.13;;;8.80;99.90;;;;;;4988756;28;20419;-87
2023/11/10 01:21:23;;;;;;;1.15;1.15;;;8.70;99.90;;;;;;4987877;28;20195;-88
2023/11/10 01:23:52;;;;;;;1.55;1.45;;;8.80;99.90;;;;;;4986693;28;20496;-85
2023/11/10 01:26:19;;;;;;;1.70;1.60;;;8.70;99.90;;;;;;4976764;28;20242;-86
2023/11/10 01:28:46;;;;;;;1.48;1.48;;;8.70;99.90;;;;;;4987726;28;20211;-86
2023/11/10 01:31:15;;;;;;;0.93;0.93;;;8.80;99.90;;;;;;4986586;28;20202;-85
2023/11/10 01:33:44;;;;;;;1.08;1.08;;;8.70;99.90;;;;;;4986684;28;20239;-83
2023/11/10 01:36:11;;;;;;;1.92;1.92;;;8.60;99.90;;;;;;4993993;28;20215;-84
2023/11/10 01:38:40;;;;;;;1.35;1.30;;;8.90;99.90;;;;;;4995512;28;20383;-84
2023/11/10 01:41:09;;;;;;;0.90;0.90;;;8.70;99.90;;;;;;4987260;28;20187;-86
2023/11/10 01:43:36;;;;;;;1.67;1.58;;;8.70;99.90;;;;;;4994643;28;20207;-86
2023/11/10 01:46:06;;;;;;;2.35;2.25;;;8.70;99.90;;;;;;4992406;28;20265;-86
2023/11/10 01:48:33;;;;;;;1.98;1.90;;;8.70;99.90;;;;;;4999409;28;20195;-82
2023/11/10 01:51:02;;;;;;;1.88;1.80;;;8.80;99.90;;;;;;5008035;28;20187;-86
2023/11/10 01:53:29;;;;;;;0.85;0.85;;;8.80;99.90;;;;;;4977366;28;20241;-87
2023/11/10 01:55:57;;;;;;;1.65;1.50;;;8.90;99.90;;;;;;4972686;28;20279;-86
2023/11/10 01:58:24;;;;;;;4.32;3.80;;;8.90;99.90;;;;;;4988348;28;20207;-88
2023/11/10 02:00:51;;;;;;;0.68;0.68;;;8.70;99.90;;;;;;4996401;28;20223;-89
2023/11/10 02:03:19;;;;;;;1.05;1.05;;;8.80;99.90;;;;;;4986551;28;20203;-86
2023/11/10 02:05:48;;;;;;;1.73;1.63;;;8.70;99.90;;;;;;4988428;28;20306;-88
2023/11/10 02:08:18;;;;;;;0.80;0.80;;;8.70;99.90;;;;;;4994734;28;20311;-87
2023/11/10 02:10:45;;;;;;;0.60;0.60;;;8.70;99.90;;;;;;4958630;28;20245;-84
2023/11/10 02:13:20;;;;;;;0.90;0.90;;;8.70;99.90;;;;;;4989156;28;20267;-87
2023/11/10 02:15:47;;;;;;;1.38;1.27;;;8.50;99.90;;;;;;4988198;28;20250;-87
2023/11/10 02:18:15;;;;;;;1.00;1.00;;;8.60;99.90;;;;;;4986035;28;20528;-84
2023/11/10 02:20:43;;;;;;;1.35;1.25;;;8.50;99.90;;;;;;4989187;28;20230;-88
2023/11/10 02:23:11;;;;;;;2.28;2.17;;;8.50;99.90;;;;;;4996416;28;20430;-87
2023/11/10 02:25:38;;;;;;;1.60;1.60;;;8.50;99.90;;;;;;5000914;28;20632;-84
2023/11/10 02:28:06;;;;;;;4.18;3.85;;;8.30;99.90;;;;;;4970879;28;20242;-84
2023/11/10 02:30:35;;;;;;;3.70;2.17;;;8.30;99.90;;;;;;4989099;28;20203;-88
2023/11/10 02:33:02;;;;;;;1.52;1.40;;;8.60;99.90;;;;;;4989007;28;20222;-82
2023/11/10 02:35:29;;;;;;;0.80;0.80;;;8.40;99.90;;;;;;4988747;28;20270;-90
2023/11/10 02:37:56;;;;;;;2.25;2.15;;;8.50;99.90;;;;;;4987759;28;20487;-84
2023/11/10 02:40:23;;;;;;;2.90;2.75;;;8.40;99.90;;;;;;4990225;28;20437;-86
2023/11/10 02:42:56;;;;;;;1.55;1.48;;;8.40;99.90;;;;;;4974238;28;20211;-83
2023/11/10 02:45:24;;;;;;;4.35;3.97;;;8.40;99.90;;;;;;4974971;28;20213;-86
2023/11/10 02:47:51;;;;;;;1.45;1.45;;;8.40;99.90;;;;;;4977410;28;20203;-82
2023/11/10 02:50:18;;;;;;;6.10;4.75;;;8.40;99.90;;;;;;4985383;28;20202;-83
2023/11/10 02:52:47;;;;;;;1.50;1.40;;;8.40;99.90;;;;;;5112002;23;20310;-85
2023/11/10 02:55:14;;;;;;;1.52;1.42;;;8.40;99.90;;;;;;5002134;28;20207;-85
2023/11/10 02:57:41;;;;;;;2.88;2.67;;;8.50;99.90;;;;;;4997688;28;20191;-87
2023/11/10 03:00:09;;;;;;;2.25;2.15;;;8.50;99.90;;;;;;4989112;28;20230;-85
2023/11/10 03:02:36;;;;;;;0.77;0.77;;;8.40;99.90;;;;;;5010392;28;20394;-85
2023/11/10 03:05:04;;;;;;;1.20;1.20;;;8.40;99.90;;;;;;5051151;23;20288;-87
2023/11/10 03:07:32;;;;;;;2.45;2.35;;;8.30;99.90;;;;;;4999415;28;20221;-88
2023/11/10 03:10:01;;;;;;;0.70;0.70;;;8.60;99.90;;;;;;5010717;28;20234;-88
2023/11/10 03:12:31;;;;;;;1.52;1.45;;;8.40;99.90;;;;;;5010169;28;20283;-87
2023/11/10 03:14:59;;;;;;;2.47;2.35;;;8.50;99.90;;;;;;5001266;28;20196;-87
2023/11/10 03:17:29;;;;;;;2.58;2.42;;;8.40;99.90;;;;;;5010179;28;20266;-83
2023/11/10 03:19:57;;;;;;;0.70;0.70;;;8.40;99.90;;;;;;5008322;28;20218;-87
2023/11/10 03:22:24;;;;;;;1.05;1.05;;;8.50;99.90;;;;;;4993635;28;20191;-85
2023/11/10 03:24:52;;;;;;;1.05;1.05;;;8.40;99.90;;;;;;4990469;28;20203;-87
2023/11/10 03:27:19;;;;;;;0.60;0.60;;;8.40;99.90;;;;;;4992906;28;20391;-87
2023/11/10 03:29:46;;;;;;;0.90;0.90;;;8.40;99.90;;;;;;4989076;28;20241;-86
2023/11/10 03:32:14;;;;;;;0.70;0.70;;;8.30;99.90;;;;;;4986633;28;20199;-86
2023/11/10 03:34:41;;;;;;;1.40;1.40;;;8.40;99.90;;;;;;4989191;28;20211;-85
2023/11/10 03:37:10;;;;;;;0.90;0.90;;;8.30;99.90;;;;;;4985391;28;20284;-88
2023/11/10 03:39:41;;;;;;;0.90;0.90;;;8.30;99.90;;;;;;4986501;28;20227;-89
2023/11/10 03:42:08;;;;;;;1.85;1.48;;;8.50;99.90;;;;;;4988483;28;20586;-83
2023/11/10 03:44:36;;;;;;;1.73;1.63;;;8.50;99.90;;;;;;4989251;28;20203;-86
2023/11/10 03:47:03;;;;;;;0.68;0.68;;;8.60;99.90;;;;;;4987843;28;20198;-88
2023/11/10 03:49:31;;;;;;;0.50;0.50;;;8.60;99.90;;;;;;4986622;28;20199;-82
2023/11/10 03:51:58;;;;;;;0.70;0.70;;;8.50;99.90;;;;;;4988972;28;20273;-88
2023/11/10 03:54:25;;;;;;;0.70;0.70;;;8.60;99.90;;;;;;4993854;28;20201;-87
2023/11/10 03:56:52;;;;;;;2.05;1.95;;;8.50;99.90;;;;;;4993507;28;20201;-85
2023/11/10 03:59:19;;;;;;;0.50;0.50;;;8.50;99.90;;;;;;4991730;28;20203;-86
2023/11/10 04:01:46;;;;;;;0.60;0.60;;;8.60;99.90;;;;;;4973644;28;20265;-85
2023/11/10 04:04:13;;;;;;;1.02;1.02;;;8.30;99.90;;;;;;4988874;28;20218;-84
2023/11/10 04:06:40;;;;;;;0.50;0.50;;;8.40;99.90;;;;;;5008165;23;20222;-88
2023/11/10 04:09:14;;;;;;;1.00;1.00;;;8.30;99.90;;;;;;5000977;28;20190;-83
2023/11/10 04:11:41;;;;;;;0.90;0.90;;;8.20;99.90;;;;;;5001060;28;20195;-88
2023/11/10 04:14:10;;;;;;;0.60;0.60;;;8.20;99.90;;;;;;5044334;23;20227;-86
2023/11/10 04:16:37;;;;;;;2.05;1.90;;;8.20;99.90;;;;;;4996031;28;20206;-85
2023/11/10 04:19:04;;;;;;;3.17;2.92;;;8.10;99.90;;;;;;5095504;23;20231;-89
2023/11/10 04:21:39;;;;;;;0.80;0.80;;;8.10;99.90;;;;;;4974656;28;20327;-88
2023/11/10 04:24:06;;;;;;;1.70;1.60;;;8.10;99.90;;;;;;4971701;28;20246;-85
2023/11/10 04:26:33;;;;;;;2.97;2.70;;;8.00;99.90;;;;;;4967067;28;20234;-85
2023/11/10 04:29:00;;;;;;;2.67;2.58;;;8.00;99.90;;;;;;4972646;28;20204;-86
2023/11/10 04:31:28;;;;;;;1.33;1.33;;;8.20;99.90;;;;;;4963021;29;20266;-84
2023/11/10 04:33:55;;;;;;;1.65;1.58;;;8.10;99.90;;;;;;4969386;28;20246;-83
2023/11/10 04:36:22;;;;;;;1.05;1.05;;;8.30;99.90;;;;;;4972029;28;20207;-85
2023/11/10 04:38:49;;;;;;;2.17;1.98;;;8.30;99.90;;;;;;4983589;28;20214;-83
2023/11/10 04:41:20;;;;;;;2.00;1.80;;;8.40;99.90;;;;;;4976933;28;20286;-88
2023/11/10 04:43:49;;;;;;;1.92;1.77;;;8.40;99.90;;;;;;4979116;28;20214;-87
2023/11/10 04:46:15;;;;;;;5.80;2.33;;;8.50;99.90;;;;;;4980764;28;20211;-83
2023/11/10 04:48:42;;;;;;;1.15;1.15;;;8.50;99.90;;;;;;4988881;28;20203;-83
2023/11/10 04:51:10;;;;;;;0.70;0.70;;;8.40;99.90;;;;;;4980889;28;20191;-84
2023/11/10 04:53:37;;;;;;;0.98;0.98;;;8.50;99.90;;;;;;4979564;28;20211;-87
2023/11/10 04:56:04;;;;;;;0.93;0.88;;;8.50;99.90;;;;;;5029159;23;20230;-88
2023/11/10 04:58:31;;;;;;;2.80;2.38;;;8.40;99.90;;;;;;4999587;28;20218;-83
2023/11/10 05:00:58;;;;;;;1.35;1.33;;;8.60;99.90;;;;;;5035092;23;20294;-84
2023/11/10 05:03:26;;;;;;;1.00;1.00;;;8.40;99.90;;;;;;4982612;28;20203;-87
2023/11/10 05:05:53;;;;;;;1.92;1.80;;;8.30;99.90;;;;;;4999521;28;20253;-86
2023/11/10 05:08:21;;;;;;;1.65;1.55;;;8.10;99.90;;;;;;4998646;28;20190;-88
2023/11/10 05:10:48;;;;;;;0.80;0.80;;;8.00;99.90;;;;;;4978192;28;20485;-89
2023/11/10 05:13:16;;;;;;;1.35;1.35;;;8.10;99.90;;;;;;4981426;28;20195;-89
2023/11/10 05:15:43;;;;;;;2.05;1.98;;;8.00;99.90;;;;;;4993074;28;20234;-90
2023/11/10 05:18:16;;;;;;;1.08;1.08;;;8.00;99.90;;;;;;4991188;28;20214;-86
2023/11/10 05:20:47;;;;;;;2.53;2.33;;;8.00;99.90;;;;;;4994677;28;20221;-90
2023/11/10 05:23:14;;;;;;;1.40;1.30;;;8.00;99.90;;;;;;4990603;28;20260;-88
2023/11/10 05:25:41;;;;;;;0.60;0.60;;;8.00;99.90;;;;;;4974069;28;20458;-88
2023/11/10 05:28:08;;;;;;;0.95;0.95;;;7.80;99.90;;;;;;4992266;28;20238;-86
2023/11/10 05:30:35;;;;;;;1.45;1.35;;;8.00;99.90;;;;;;4976178;28;20226;-88
2023/11/10 05:33:08;;;;;;;2.20;2.10;;;8.10;99.90;;;;;;4976013;28;20253;-91
2023/11/10 05:35:40;;;;;;;3.15;1.67;;;8.20;99.90;;;;;;4980195;28;20209;-87
2023/11/10 05:38:11;;;;;;;0.80;0.80;;;8.30;99.90;;;;;;4982128;28;20221;-87
2023/11/10 05:40:40;;;;;;;0.57;0.57;;;8.00;99.90;;;;;;5182880;23;20267;-89
2023/11/10 05:43:09;;;;;;;0.50;0.50;;;8.20;99.90;;;;;;5030510;23;20254;-87
2023/11/10 05:45:37;;;;;;;0.65;0.65;;;8.10;99.90;;;;;;4964303;28;20227;-90
2023/11/10 05:48:05;;;;;;;1.98;1.88;;;8.20;99.90;;;;;;4959727;28;20267;-88
2023/11/10 05:51:06;;;;;;;1.25;1.23;;;8.10;99.90;;;;;;4972869;28;20203;-88
2023/11/10 05:53:38;;;;;;;0.47;0.47;;;7.90;99.90;;;;;;4969960;28;20210;-87
2023/11/10 05:56:16;;;;;;;1.50;1.45;;;7.80;99.90;;;;;;4948010;28;20206;-89
2023/11/10 05:58:47;;;;;;;0.70;0.70;;;8.00;99.90;;;;;;4948564;28;20210;-88
2023/11/10 06:01:23;;;;;;;0.93;0.93;;;8.10;99.90;;;;;;4969990;28;20238;-87
2023/11/10 06:03:51;;;;;;;1.77;1.67;;;8.00;99.90;;;;;;4970188;28;20211;-88
2023/11/10 06:06:26;;;;;;;0.70;0.70;;;8.00;99.90;;;;;;4987869;28;20235;-90
2023/11/10 06:09:11;;;;;;;0.90;0.90;;;7.90;99.90;;;;;;5216295;23;20241;-89
2023/11/10 06:11:38;;;;;;;0.90;0.90;;;7.90;99.90;;;;;;4977738;28;20298;-89
2023/11/10 06:14:21;;;;;;;4.32;1.90;;;7.80;99.90;;;;;;4970416;28;20230;-88
2023/11/10 06:16:54;;;;;;;1.58;1.58;;;8.00;99.90;;;;;;4978465;28;20187;-91
2023/11/10 06:19:22;;;;;;;1.00;1.00;;;8.00;99.90;;;;;;4976882;28;20275;-90
2023/11/10 06:22:02;;;;;;;1.85;1.75;;;7.80;99.90;;;;;;4978318;28;20245;-92
2023/11/10 06:24:30;;;;;;;1.08;1.08;;;7.80;99.90;;;;;;5001292;28;20183;-85
2023/11/10 06:27:01;;;;;;;1.88;1.77;;;8.00;99.90;;;;;;5094277;23;20250;-88
2023/11/10 06:29:29;;;;;;;1.17;1.15;;;8.00;99.90;;;;;;4994733;28;20198;-89
2023/11/10 06:32:11;;;;;;;2.40;2.20;;;8.00;99.90;;;;;;5004063;28;20191;-88
2023/11/10 06:34:38;;;;;;;0.80;0.80;;;8.30;99.90;;;;;;4993746;28;20201;-87
2023/11/10 06:37:06;;;;;;;1.38;1.17;;;8.40;99.90;;;;;;4988511;28;20234;-85
2023/11/10 06:39:36;;;;;;;1.02;1.02;;;8.70;99.90;;;;;;4993494;28;20209;-87
2023/11/10 06:42:12;;;;;;;1.13;1.13;;;8.60;99.90;;;;;;4986773;28;20219;-92
2023/11/10 06:44:56;;;;;;;1.00;1.00;;;8.60;99.90;;;;;;4999977;28;20215;-91
2023/11/10 06:47:47;;;;;;;1.20;1.10;;;8.50;99.90;;;;;;4966933;23;20242;-91
2023/11/10 06:50:14;;;;;;;1.58;1.50;;;8.40;99.90;;;;;;4989109;28;20211;-90
2023/11/10 06:52:44;;;;;;;1.52;1.42;;;8.50;99.90;;;;;;4987373;28;20199;-91
2023/11/10 06:55:14;;;;;;;0.60;0.60;;;8.50;99.90;;;;;;4989529;28;20203;-90
2023/11/10 06:57:44;;;;;;;0.50;0.50;;;8.50;99.90;;;;;;4989719;28;20262;-86
2023/11/10 07:00:13;;;;;;;0.80;0.80;;;8.50;99.90;;;;;;4993424;28;20218;-88
2023/11/10 07:02:42;;;;;;;1.20;1.10;;;8.50;99.90;;;;;;4995743;28;20195;-89
2023/11/10 07:05:10;;;;;;;8.90;2.50;;;8.40;99.90;;;;;;4988699;28;20198;-91
2023/11/10 07:07:39;;;;;;;0.70;0.70;;;8.40;99.90;;;;;;5222923;23;20223;-89
2023/11/10 07:10:10;;;;;;;1.20;1.10;;;8.20;99.90;;;;;;4997684;28;20269;-91
2023/11/10 07:12:41;;;;;;;1.05;1.05;;;8.20;99.90;;;;;;4990948;28;20495;-90
2023/11/10 07:15:15;;;;;;;0.80;0.80;;;8.40;99.90;;;;;;4989765;28;20217;-93
2023/11/10 07:17:46;;;;;;;3.00;2.83;;;8.40;99.90;;;;;;4972204;28;20199;-91
2023/11/10 07:20:22;;;;;;;2.97;2.88;;;8.60;99.90;;;;;;5201184;23;20241;-92
2023/11/10 07:23:11;;;;;;;1.67;1.58;;;9.20;99.90;;;;;;5221491;23;20309;-88
2023/11/10 07:25:43;;;;;;;3.83;3.50;;;9.80;99.90;;;;;;4980879;28;20217;-88
2023/11/10 07:28:13;;;;;;;2.05;1.95;;;10.10;99.90;;;;;;4973747;28;20270;-90
2023/11/10 07:30:43;;;;;;;1.55;1.45;;;9.90;99.90;;;;;;5048143;23;20312;-90
2023/11/10 07:33:11;;;;;;;1.17;1.13;;;9.70;99.90;;;;;;4990393;28;20442;-91
2023/11/10 07:35:44;;;;;;;0.90;0.90;;;9.50;99.90;;;;;;4977687;28;20209;-92
2023/11/10 07:38:16;;;;;;;1.55;1.55;;;9.40;99.90;;;;;;4973993;28;20256;-89
2023/11/10 07:43:24;;;;;;;1.17;1.17;;;9.30;99.90;;;;;;5090497;23;20230;-88
2023/11/10 07:46:04;;;;;;;0.90;0.90;;;9.10;99.90;;;;;;4979221;28;20195;-91
2023/11/10 07:48:32;;;;;;;0.60;0.60;;;9.00;99.90;;;;;;5366605;23;20196;-88
2023/11/10 07:51:00;;;;;;;1.23;1.23;;;9.00;99.90;;;;;;4984932;28;20247;-88
2023/11/10 07:53:39;;;;;;;1.05;1.05;;;9.00;99.90;;;;;;5158447;23;20227;-89
2023/11/10 07:56:07;;;;;;;0.60;0.60;;;8.90;99.90;;;;;;5555405;23;20218;-87
2023/11/10 07:58:38;;;;;;;0.60;0.60;;;9.00;99.90;;;;;;5300041;23;20242;-87
2023/11/10 08:01:05;;;;;;;1.88;1.70;;;9.00;99.90;;;;;;4976069;28;20218;-88
2023/11/10 08:03:35;;;;;;;0.60;0.60;;;9.10;99.90;;;;;;5254611;23;20245;-91
2023/11/10 08:06:03;;;;;;;0.50;0.50;;;9.20;99.90;;;;;;4988804;28;20211;-86
2023/11/10 08:16:34;;;;;;;0.60;0.60;;;9.90;99.90;;;;;;5116100;23;20226;-91
2023/11/10 08:22:04;;;;;;;0.77;0.77;;;10.30;99.90;;;;;;5486951;23;20218;-90
2023/11/10 08:24:45;;;;;;;2.00;1.90;;;10.70;99.90;;;;;;4971136;28;20203;-88
2023/11/10 08:29:55;;;;;;;2.65;2.55;;;10.50;99.90;;;;;;5693710;23;20215;-83
2023/11/10 08:32:23;;;;;;;2.38;2.28;;;10.60;99.90;;;;;;5265978;23;20218;-90
2023/11/10 08:34:50;;;;;;;3.60;3.42;;;10.80;99.90;;;;;;5180941;23;20223;-90
2023/11/10 08:37:24;;;;;;;1.10;1.10;;;11.10;99.90;;;;;;5298963;23;20214;-89
2023/11/10 08:42:32;;;;;;;2.13;2.03;;;11.10;99.90;;;;;;5111359;23;20262;-86
2023/11/10 08:47:31;;;;;;;0.70;0.70;;;11.40;99.90;;;;;;4992450;28;20253;-90
2023/11/10 08:49:59;;;;;;;1.35;1.25;;;11.20;99.90;;;;;;5242836;23;20802;-86
2023/11/10 08:52:32;;;;;;;3.60;3.38;;;10.80;99.90;;;;;;5069601;23;20250;-90
2023/11/10 08:54:59;;;;;;;1.80;1.70;;;10.70;99.90;;;;;;5408623;23;20525;-90
2023/11/10 09:00:20;;;;;;;1.00;1.00;;;10.80;99.90;;;;;;4996742;28;20426;-89
2023/11/10 09:02:56;;;;;;;1.17;1.17;;;10.80;99.90;;;;;;5256735;23;20242;-90
2023/11/10 09:05:26;;;;;;;0.60;0.60;;;10.80;99.90;;;;;;4978934;28;20266;-88
2023/11/10 09:07:54;;;;;;;0.98;0.88;;;10.80;99.90;;;;;;5171847;23;20313;-87
2023/11/10 09:13:03;;;;;;;1.02;1.02;;;11.10;99.90;;;;;;5210089;23;20783;-84
2023/11/10 09:15:31;;;;;;;2.13;2.03;;;11.10;99.90;;;;;;4996613;28;20214;-87
2023/11/10 09:17:59;;;;;;;1.63;1.52;;;11.10;99.90;;;;;;4996555;28;20262;-85
2023/11/10 09:20:26;;;;;;;0.90;0.90;;;11.10;99.90;;;;;;4999104;28;20195;-87
2023/11/10 09:25:29;;;;;;;0.60;0.60;;;11.10;99.90;;;;;;5067305;23;20252;-90
2023/11/10 09:27:57;;;;;;;0.70;0.70;;;11.20;99.90;;;;;;4980724;28;20198;-85
2023/11/10 09:30:27;;;;;;;0.98;0.98;;;11.00;99.90;;;;;;4996915;28;20206;-83
2023/11/10 09:32:56;;;;;;;1.25;1.15;;;11.10;99.90;;;;;;4996891;28;20271;-88
2023/11/10 09:35:26;;;;;;;1.67;1.65;;;11.20;99.90;;;;;;5003747;28;20199;-84
2023/11/10 09:37:54;;;;;;;0.70;0.70;;;11.00;99.90;;;;;;4999074;28;20275;-87
2023/11/10 09:40:23;;;;;;;2.28;2.17;;;10.90;99.90;;;;;;4977377;28;20218;-89
2023/11/10 09:48:30;;;;;;;1.13;1.13;;;11.00;99.90;;;;;;5245667;23;20208;-92
2023/11/10 09:53:36;;;;;;;1.23;1.23;;;10.90;99.90;;;;;;5046202;23;20242;-92
2023/11/10 10:04:23;;;;;;;1.38;1.38;;;10.90;99.90;;;;;;5752849;23;20289;-87
2023/11/10 10:06:56;;;;;;;0.73;0.73;;;10.90;99.90;;;;;;5141417;23;20231;-85
2023/11/10 10:09:38;;;;;;;1.08;1.08;;;10.90;99.90;;;;;;5125797;23;20238;-90
2023/11/10 10:12:08;;;;;;;0.80;0.80;;;11.00;99.90;;;;;;5076296;23;20242;-89
2023/11/10 10:14:36;;;;;;;2.05;1.95;;;11.10;99.90;;;;;;5521887;23;20267;-85
2023/11/10 10:17:09;;;;;;;0.80;0.80;;;11.00;99.90;;;;;;4977369;28;20199;-90
2023/11/10 10:19:36;;;;;;;0.93;0.93;;;11.00;99.90;;;;;;4978620;28;20218;-86
2023/11/10 10:22:06;;;;;;;1.02;1.02;;;10.80;99.90;;;;;;5139370;23;21365;-89
2023/11/10 10:24:34;;;;;;;1.88;1.77;;;10.80;99.90;;;;;;4945103;29;20211;-88
2023/11/10 10:27:01;;;;;;;1.67;1.58;;;10.80;99.90;;;;;;4958372;28;20200;-87
2023/11/10 10:29:29;;;;;;;0.75;0.75;;;10.90;99.90;;;;;;4935085;29;20271;-89
2023/11/10 10:31:58;;;;;;;0.70;0.70;;;10.90;99.90;;;;;;4938887;29;20192;-91
2023/11/10 10:34:25;;;;;;;0.60;0.60;;;10.90;99.90;;;;;;4939779;29;20224;-87
2023/11/10 10:39:30;;;;;;;1.52;1.52;;;10.90;99.90;;;;;;5485755;23;20212;-91
2023/11/10 10:41:59;;;;;;;1.70;1.60;;;10.90;99.90;;;;;;5177796;23;20226;-90
2023/11/10 10:44:35;;;;;;;0.73;0.73;;;10.90;99.90;;;;;;5201984;23;20197;-87
2023/11/10 10:47:25;;;;;;;5.68;3.53;;;10.90;99.90;;;;;;4973558;28;20226;-92
2023/11/10 10:49:54;;;;;;;1.05;1.05;;;11.00;99.90;;;;;;4977982;28;20206;-89
2023/11/10 10:52:29;;;;;;;1.35;1.35;;;10.90;99.90;;;;;;5047039;23;20234;-91
2023/11/10 10:55:07;;;;;;;0.70;0.70;;;11.00;99.90;;;;;;5351574;23;20292;-90
2023/11/10 10:57:51;;;;;;;3.10;2.35;;;10.90;99.90;;;;;;5156604;23;20320;-89
2023/11/10 11:19:57;;;;;;;0.70;0.70;;;11.00;99.90;;;;;;5319130;23;20246;-90
2023/11/10 11:22:39;;;;;;;0.90;0.90;;;11.00;99.90;;;;;;4982110;28;20265;-91
2023/11/10 11:31:08;;;;;;;1.30;1.30;;;11.20;99.90;;;;;;5371438;23;20226;-92
2023/11/10 11:34:21;;;;;;;1.00;1.00;;;11.10;99.90;;;;;;4977655;28;20230;-89
2023/11/10 11:37:06;;;;;;;1.00;1.00;;;11.20;99.90;;;;;;4979849;28;20283;-91
2023/11/10 11:42:13;;;;;;;35.35;3.80;;;11.00;99.90;;;;;;5459525;23;20253;-87
2023/11/10 11:45:05;;;;;;;0.77;0.77;;;10.90;99.90;;;;;;4976307;28;20205;-92
2023/11/10 11:47:43;;;;;;;1.20;1.10;;;10.90;99.90;;;;;;4964244;28;20487;-93
2023/11/10 11:50:35;;;;;;;1.00;1.00;;;10.90;99.90;;;;;;4992094;28;20198;-91
2023/11/10 11:53:07;;;;;;;2.40;2.22;;;10.90;99.90;;;;;;5136173;23;20250;-89
2023/11/10 11:55:42;;;;;;;2.00;1.90;;;10.90;99.90;;;;;;4976731;28;20482;-90
2023/11/10 11:58:12;;;;;;;0.98;0.98;;;10.90;99.90;;;;;;4992920;28;20215;-89
2023/11/10 12:03:17;;;;;;;1.60;1.60;;;10.80;99.90;;;;;;5064243;23;20226;-86
2023/11/10 12:05:45;;;;;;;0.80;0.80;;;10.80;99.90;;;;;;4989244;28;20346;-85
2023/11/10 12:08:12;;;;;;;1.88;1.77;;;10.80;99.90;;;;;;4993218;28;20230;-88
2023/11/10 12:10:42;;;;;;;0.60;0.60;;;10.80;99.90;;;;;;4977476;28;20242;-84
2023/11/10 12:13:12;;;;;;;0.80;0.80;;;10.80;99.90;;;;;;4981621;28;20258;-91
2023/11/10 12:15:52;;;;;;;0.70;0.70;;;10.80;99.90;;;;;;4980057;28;20231;-91
2023/11/10 12:18:37;;;;;;;1.00;1.00;;;10.60;99.90;;;;;;4999734;28;20163;-89
2023/11/10 12:29:32;;;;;;;1.75;1.67;;;10.70;99.90;;;;;;5724696;23;20212;-87
2023/11/10 13:06:30;;;;;;;0.80;0.80;;;10.40;99.90;;;;;;5001199;28;20233;-87
2023/11/10 13:09:00;;;;;;;2.22;2.13;;;10.40;99.90;;;;;;5054164;23;20269;-90
2023/11/10 13:16:51;;;;;;;1.10;1.10;;;10.40;99.90;;;;;;5118630;23;20230;-89
2023/11/10 13:19:25;;;;;;;0.90;0.90;;;10.40;99.90;;;;;;4976264;29;20198;-88
2023/11/10 13:21:59;;;;;;;0.80;0.80;;;10.40;99.90;;;;;;4976624;28;20229;-88
2023/11/10 13:40:38;;;;;;;6.43;3.63;;;10.30;99.90;;;;;;5189576;23;20250;-88
2023/11/10 13:43:07;;;;;;;2.00;1.80;;;10.20;99.90;;;;;;4974969;28;20270;-86
2023/11/10 13:45:35;;;;;;;4.50;4.10;;;10.20;99.90;;;;;;5030074;23;20247;-90
2023/11/10 13:48:06;;;;;;;1.60;1.60;;;10.20;99.90;;;;;;4972664;28;20242;-87
2023/11/10 13:50:43;;;;;;;;;;;;;;;;;;;;;
2023/11/10 13:53:14;;;;;;;1.60;1.50;;;10.20;99.90;;;;;;4974214;28;20204;-86
2023/11/10 14:01:08;;;;;;;1.05;1.05;;;10.10;99.90;;;;;;5224830;23;20239;-89
2023/11/10 14:03:39;;;;;;;1.08;1.08;;;10.10;99.90;;;;;;5178650;23;20294;-89
2023/11/10 14:06:09;;;;;;;1.50;1.45;;;10.10;99.90;;;;;;4987658;28;20207;-88
2023/11/10 14:08:38;;;;;;;1.88;1.77;;;10.10;99.90;;;;;;5272037;23;20235;-92
2023/11/10 14:16:35;;;;;;;3.92;3.25;;;10.00;99.90;;;;;;5095876;23;20269;-90
2023/11/10 14:19:07;;;;;;;0.70;0.70;;;9.90;99.90;;;;;;4973119;28;20199;-91
2023/11/10 14:21:35;;;;;;;0.90;0.90;;;10.20;99.90;;;;;;5731879;23;21577;-92
2023/11/10 14:26:45;;;;;;;1.00;1.00;;;10.00;99.90;;;;;;5508860;23;20566;-85
2023/11/10 14:29:12;;;;;;;3.20;2.92;;;10.00;99.90;;;;;;4972465;28;20204;-87
2023/11/10 14:31:39;;;;;;;1.67;1.60;;;10.00;99.90;;;;;;5342004;23;20221;-86
2023/11/10 14:39:31;;;;;;;1.65;1.55;;;9.90;99.90;;;;;;4989871;28;20818;-91
2023/11/10 14:41:59;;;;;;;1.35;1.35;;;9.80;99.90;;;;;;5417352;23;20226;-92
2023/11/10 14:50:13;;;;;;;1.35;1.35;;;9.80;99.90;;;;;;5517266;23;20536;-91
2023/11/10 14:55:27;;;;;;;1.00;1.00;;;9.80;99.90;;;;;;5459531;23;21203;-90
2023/11/10 15:00:28;;;;;;;2.95;2.85;;;9.70;99.90;;;;;;4972140;28;20212;-91
2023/11/10 15:03:00;;;;;;;1.88;1.77;;;9.70;99.90;;;;;;5143561;23;20969;-88
2023/11/10 15:05:31;;;;;;;2.63;2.47;;;9.80;99.90;;;;;;5245317;23;20226;-89
2023/11/10 15:08:14;;;;;;;3.83;1.90;;;9.60;99.90;;;;;;5551984;23;21663;-86
2023/11/10 15:13:19;;;;;;;0.70;0.70;;;9.60;99.90;;;;;;5037998;23;20246;-86
2023/11/10 15:18:24;;;;;;;4.20;2.78;;;9.60;99.90;;;;;;5073938;23;20214;-89
2023/11/10 15:20:51;;;;;;;2.35;2.25;;;9.50;99.90;;;;;;5020077;23;20246;-86
2023/11/10 15:26:02;;;;;;;2.97;2.67;;;9.50;99.90;;;;;;4954465;29;20211;-87
2023/11/10 15:28:38;;;;;;;10.23;3.10;;;9.60;99.90;;;;;;4959533;28;20228;-93
2023/11/10 15:42:17;;;;;;;3.15;2.88;;;9.60;99.90;;;;;;5000486;23;20289;-87
2023/11/10 15:45:10;;;;;;;7.00;4.70;;;9.60;99.90;;;;;;5050727;23;20263;-92
2023/11/10 15:47:39;;;;;;;0.93;0.93;;;9.60;99.90;;;;;;5274009;23;20239;-92
2023/11/10 16:00:40;;;;;;;1.15;1.15;;;9.60;99.90;;;;;;5592344;23;20224;-90
2023/11/10 16:05:52;;;;;;;1.45;1.45;;;9.60;99.90;;;;;;5326418;23;20213;-88
2023/11/10 17:01:04;;;;;;;2.13;1.95;;;8.90;99.90;;;;;;5231609;23;20222;-91
2023/11/10 17:03:31;;;;;;;0.50;0.50;;;8.80;99.90;;;;;;5064824;23;20286;-93
2023/11/10 17:06:01;;;;;;;0.85;0.85;;;8.90;99.90;;;;;;5329548;23;20223;-91
2023/11/10 17:08:38;;;;;;;1.10;1.10;;;8.80;99.90;;;;;;4972764;28;20239;-92
2023/11/10 17:11:18;;;;;;;2.00;1.90;;;8.80;99.90;;;;;;5154804;23;20246;-92
2023/11/10 17:13:46;;;;;;;1.38;1.30;;;8.80;99.90;;;;;;5765835;23;20432;-91
2023/11/10 17:37:38;;;;;;;0.93;0.93;;;8.70;99.90;;;;;;4823807;23;20258;-85
2023/11/10 17:40:08;;;;;;;2.58;2.47;;;8.70;99.90;;;;;;4978680;28;20553;-88
2023/11/10 17:42:35;;;;;;;6.28;5.95;;;8.60;99.90;;;;;;4974299;28;20242;-89
2023/11/10 17:45:04;;;;;;;2.05;1.95;;;8.60;99.90;;;;;;4989740;28;20202;-86
2023/11/10 17:47:30;;;;;;;1.80;1.73;;;8.70;99.90;;;;;;4964164;28;20491;-86
2023/11/10 17:49:58;;;;;;;2.63;2.42;;;8.70;99.90;;;;;;4975304;28;20295;-85
2023/11/10 17:52:26;;;;;;;4.63;3.78;;;8.90;99.90;;;;;;4964697;28;20531;-87